Time;durP1;ratioP1;P1;durP2;ratioP2;P2;SDS_P1;SDS_P2;PMS_P1;PMS_P2;Temp;Humidity;BMP_temperature;BMP_pressure;BME280_temperature;BME280_humidity;BME280_pressure;Samples;Min_cycle;Max_cycle;Signal;HPM_P1;HPM_P2
2022/07/27 00:01:16;;;;;;;19.27;4.40;;;;;;;;;;5047955;28;20128;-65
2022/07/27 00:03:43;;;;;;;15.63;4.68;;;;;;;;;;5044810;28;20075;-66
2022/07/27 00:06:09;;;;;;;17.63;4.80;;;;;;;;;;5040158;28;20089;-68
2022/07/27 00:08:35;;;;;;;21.83;5.70;;;;;;;;;;5045817;28;20049;-66
2022/07/27 00:11:00;;;;;;;20.77;4.65;;;;;;;;;;5043983;28;20108;-64
2022/07/27 00:13:27;;;;;;;13.57;4.05;;;;;;;;;;5043213;28;20491;-65
2022/07/27 00:15:53;;;;;;;19.08;4.82;;;;;;;;;;5037041;28;20494;-65
2022/07/27 00:18:19;;;;;;;18.50;4.35;;;;;;;;;;5037937;28;20053;-65
2022/07/27 00:20:45;;;;;;;19.67;4.78;;;;;;;;;;5034549;28;20057;-65
2022/07/27 00:23:11;;;;;;;16.83;5.15;;;;;;;;;;5039247;28;20678;-66
2022/07/27 00:25:37;;;;;;;17.60;4.50;;;;;;;;;;5036550;28;20040;-66
2022/07/27 00:28:03;;;;;;;16.83;4.72;;;;;;;;;;5044435;28;20049;-66
2022/07/27 00:30:29;;;;;;;17.50;4.70;;;;;;;;;;5041960;28;20041;-66
2022/07/27 00:32:55;;;;;;;19.17;4.85;;;;;;;;;;5044847;28;20141;-65
2022/07/27 00:35:22;;;;;;;17.63;4.53;;;;;;;;;;5040786;28;20045;-66
2022/07/27 00:37:47;;;;;;;19.95;4.72;;;;;;;;;;5041103;28;20052;-66
2022/07/27 00:40:14;;;;;;;20.02;4.70;;;;;;;;;;5047614;28;20513;-66
2022/07/27 00:42:39;;;;;;;17.95;4.57;;;;;;;;;;5046873;28;20033;-67
2022/07/27 00:45:06;;;;;;;17.17;4.53;;;;;;;;;;5045086;28;20045;-66
2022/07/27 00:47:32;;;;;;;15.10;4.63;;;;;;;;;;5044958;28;20459;-66
2022/07/27 00:49:59;;;;;;;20.90;4.50;;;;;;;;;;5047657;28;20049;-67
2022/07/27 00:52:26;;;;;;;23.05;5.13;;;;;;;;;;5035070;28;20518;-67
2022/07/27 00:54:52;;;;;;;15.23;4.13;;;;;;;;;;5043519;28;20044;-65
2022/07/27 00:57:18;;;;;;;17.70;4.50;;;;;;;;;;5050674;28;20135;-67
2022/07/27 02:02:22;;;;;;;14.45;4.53;;;;;;;;;;4120712;28;20730;-64
2022/07/27 02:04:48;;;;;;;16.05;4.22;;;;;;;;;;5047428;28;20044;-65
2022/07/27 02:07:14;;;;;;;18.42;4.28;;;;;;;;;;5046805;28;20043;-65
2022/07/27 02:09:40;;;;;;;21.27;4.75;;;;;;;;;;5046100;28;20498;-66
2022/07/27 02:14:50;;;;;;;19.30;4.45;;;;;;;;;;5038429;28;20037;-69
2022/07/27 02:17:16;;;;;;;17.23;4.45;;;;;;;;;;5039807;28;20049;-65
2022/07/27 02:19:42;;;;;;;19.45;4.15;;;;;;;;;;5035893;28;20128;-65
2022/07/27 02:22:07;;;;;;;15.85;4.40;;;;;;;;;;5031879;28;20176;-67
2022/07/27 02:24:36;;;;;;;16.13;4.60;;;;;;;;;;5042922;28;20045;-65
2022/07/27 02:27:03;;;;;;;14.68;3.92;;;;;;;;;;5033358;28;20474;-65
2022/07/27 02:29:29;;;;;;;14.32;4.25;;;;;;;;;;5029955;28;20052;-65
2022/07/27 02:31:56;;;;;;;15.60;4.43;;;;;;;;;;5034245;28;20052;-67
2022/07/27 02:34:22;;;;;;;20.05;4.68;;;;;;;;;;5041500;28;20053;-65
2022/07/27 02:36:48;;;;;;;23.00;4.53;;;;;;;;;;5035146;28;20053;-65
2022/07/27 02:39:14;;;;;;;15.95;4.32;;;;;;;;;;5044478;28;20391;-65
2022/07/27 02:41:40;;;;;;;19.45;4.72;;;;;;;;;;5040910;28;20091;-66
2022/07/27 02:44:05;;;;;;;20.52;4.75;;;;;;;;;;5029945;28;20049;-65
2022/07/27 02:46:31;;;;;;;14.90;4.25;;;;;;;;;;5039346;28;20111;-71
2022/07/27 02:48:57;;;;;;;22.27;4.60;;;;;;;;;;5040598;28;20045;-64
2022/07/27 02:51:23;;;;;;;14.77;4.55;;;;;;;;;;5044084;28;20090;-65
2022/07/27 02:53:49;;;;;;;14.90;4.22;;;;;;;;;;5046809;28;20056;-67
2022/07/27 02:56:14;;;;;;;18.90;4.60;;;;;;;;;;5044220;28;20048;-66
2022/07/27 02:58:40;;;;;;;18.60;4.32;;;;;;;;;;5045367;28;20493;-65
2022/07/27 03:01:06;;;;;;;18.67;4.97;;;;;;;;;;5032461;28;20048;-64
2022/07/27 03:03:33;;;;;;;16.55;4.80;;;;;;;;;;5041413;28;20125;-66
2022/07/27 03:05:58;;;;;;;18.08;4.38;;;;;;;;;;5031902;28;20049;-67
2022/07/27 03:08:24;;;;;;;17.00;4.40;;;;;;;;;;5038389;28;20120;-64
2022/07/27 03:10:50;;;;;;;26.45;5.47;;;;;;;;;;5037770;28;20483;-69
2022/07/27 03:13:16;;;;;;;27.08;5.07;;;;;;;;;;5045110;28;20045;-65
2022/07/27 03:15:42;;;;;;;20.98;5.00;;;;;;;;;;5038152;28;20049;-66
2022/07/27 03:18:07;;;;;;;17.17;4.50;;;;;;;;;;5029146;28;20851;-65
2022/07/27 03:20:33;;;;;;;18.00;4.57;;;;;;;;;;5037213;28;20037;-66
2022/07/27 03:22:59;;;;;;;19.23;5.20;;;;;;;;;;5042926;28;20046;-64
2022/07/27 03:25:25;;;;;;;16.80;4.45;;;;;;;;;;5040159;28;20051;-65
2022/07/27 03:27:50;;;;;;;19.92;4.65;;;;;;;;;;5042872;28;20053;-64
2022/07/27 03:30:16;;;;;;;15.88;4.60;;;;;;;;;;5034106;28;20422;-66
2022/07/27 03:32:42;;;;;;;17.92;5.13;;;;;;;;;;5031357;28;20046;-66
2022/07/27 03:35:08;;;;;;;15.98;4.80;;;;;;;;;;5028605;28;20055;-66
2022/07/27 03:37:34;;;;;;;24.27;4.80;;;;;;;;;;5032930;28;20078;-66
2022/07/27 03:40:00;;;;;;;17.15;4.65;;;;;;;;;;5030166;28;20046;-65
2022/07/27 03:42:25;;;;;;;16.60;4.45;;;;;;;;;;5035620;28;20470;-65
2022/07/27 03:44:52;;;;;;;14.57;4.90;;;;;;;;;;5042887;28;20045;-64
2022/07/27 03:47:18;;;;;;;18.67;4.60;;;;;;;;;;5037223;28;20060;-65
2022/07/27 03:49:44;;;;;;;15.82;4.45;;;;;;;;;;5029294;28;20053;-64
2022/07/27 03:52:10;;;;;;;16.48;4.78;;;;;;;;;;5037703;28;20045;-67
2022/07/27 03:54:36;;;;;;;19.33;4.35;;;;;;;;;;5034170;28;20057;-65
2022/07/27 03:57:01;;;;;;;17.48;4.78;;;;;;;;;;5045166;28;20052;-66
2022/07/27 03:59:27;;;;;;;16.45;4.82;;;;;;;;;;5036288;28;20073;-67
2022/07/27 04:01:53;;;;;;;14.77;4.28;;;;;;;;;;5035387;28;20049;-65
2022/07/27 04:04:19;;;;;;;19.05;4.70;;;;;;;;;;5033784;28;20041;-65
2022/07/27 04:06:45;;;;;;;19.23;4.78;;;;;;;;;;5043797;28;20086;-66
2022/07/27 04:09:11;;;;;;;13.05;4.28;;;;;;;;;;5029128;28;20118;-67
2022/07/27 04:11:36;;;;;;;17.42;4.65;;;;;;;;;;5041758;28;20037;-64
2022/07/27 04:14:03;;;;;;;15.07;4.50;;;;;;;;;;5040312;28;20064;-66
2022/07/27 04:16:29;;;;;;;16.25;5.10;;;;;;;;;;5030856;28;20041;-67
2022/07/27 04:18:54;;;;;;;23.17;5.05;;;;;;;;;;5030060;28;20415;-66
2022/07/27 04:21:20;;;;;;;21.95;4.85;;;;;;;;;;5034689;28;20057;-65
2022/07/27 04:23:46;;;;;;;12.88;4.40;;;;;;;;;;5035576;28;20487;-65
2022/07/27 04:26:12;;;;;;;16.83;5.05;;;;;;;;;;5029631;28;20049;-65
2022/07/27 04:28:38;;;;;;;21.92;5.15;;;;;;;;;;5041055;28;20044;-66
2022/07/27 04:31:03;;;;;;;22.30;5.05;;;;;;;;;;5050219;28;20098;-67
2022/07/27 04:33:30;;;;;;;21.63;4.78;;;;;;;;;;5037335;28;20057;-67
2022/07/27 04:35:56;;;;;;;16.60;4.50;;;;;;;;;;5038819;28;20055;-67
2022/07/27 04:38:22;;;;;;;16.17;4.47;;;;;;;;;;5063371;28;20361;-66
2022/07/27 04:40:48;;;;;;;18.75;4.78;;;;;;;;;;5043250;28;20069;-65
2022/07/27 04:43:14;;;;;;;18.90;4.65;;;;;;;;;;5038037;28;20178;-67
2022/07/27 04:45:39;;;;;;;19.50;4.35;;;;;;;;;;5045281;28;20037;-65
2022/07/27 04:48:07;;;;;;;18.63;4.72;;;;;;;;;;5040016;28;22549;-66
2022/07/27 04:50:39;;;;;;;14.68;5.30;;;;;;;;;;5051064;28;20049;-66
2022/07/27 04:53:04;;;;;;;18.92;4.75;;;;;;;;;;5038580;28;20199;-64
2022/07/27 04:55:30;;;;;;;18.13;4.95;;;;;;;;;;5040208;28;20542;-65
2022/07/27 04:57:56;;;;;;;18.92;4.45;;;;;;;;;;5035923;28;20124;-65
2022/07/27 05:00:22;;;;;;;19.30;4.35;;;;;;;;;;5042542;28;20487;-64
2022/07/27 05:02:48;;;;;;;24.17;4.80;;;;;;;;;;5050307;28;20056;-66
2022/07/27 05:05:15;;;;;;;18.27;4.75;;;;;;;;;;5049284;28;20053;-65
2022/07/27 05:07:40;;;;;;;22.88;5.43;;;;;;;;;;5045423;28;20041;-67
2022/07/27 05:10:06;;;;;;;19.10;4.07;;;;;;;;;;5036090;28;20051;-68
2022/07/27 05:12:32;;;;;;;17.67;4.97;;;;;;;;;;5042041;28;20049;-66
2022/07/27 05:14:58;;;;;;;18.92;4.88;;;;;;;;;;5032832;28;20414;-69
2022/07/27 05:17:24;;;;;;;16.67;4.43;;;;;;;;;;5042847;28;20448;-66
2022/07/27 05:19:50;;;;;;;20.65;4.95;;;;;;;;;;5046557;28;20052;-65
2022/07/27 05:22:16;;;;;;;20.73;4.85;;;;;;;;;;5032673;28;20045;-69
2022/07/27 05:24:42;;;;;;;17.73;4.72;;;;;;;;;;5039074;28;20045;-64
2022/07/27 05:27:08;;;;;;;24.85;4.78;;;;;;;;;;5041022;28;20085;-66
2022/07/27 05:29:33;;;;;;;20.05;4.80;;;;;;;;;;5045228;28;20055;-66
2022/07/27 05:31:59;;;;;;;17.55;4.32;;;;;;;;;;5036476;28;20042;-66
2022/07/27 05:34:25;;;;;;;18.15;4.82;;;;;;;;;;5044872;28;20729;-64
2022/07/27 05:36:51;;;;;;;18.17;4.47;;;;;;;;;;5045592;28;20049;-69
2022/07/27 05:39:16;;;;;;;25.80;4.40;;;;;;;;;;5042385;28;20445;-67
2022/07/27 05:41:42;;;;;;;16.50;4.50;;;;;;;;;;5037999;28;20094;-67
2022/07/27 05:44:08;;;;;;;23.60;4.72;;;;;;;;;;5043005;28;20048;-67
2022/07/27 05:46:35;;;;;;;25.50;5.20;;;;;;;;;;5031190;28;20194;-67
2022/07/27 05:49:01;;;;;;;19.05;4.53;;;;;;;;;;5041923;28;20498;-66
2022/07/27 05:51:27;;;;;;;15.90;4.15;;;;;;;;;;5043312;28;20098;-66
2022/07/27 05:53:52;;;;;;;16.35;4.53;;;;;;;;;;5041906;28;20053;-66
2022/07/27 05:56:18;;;;;;;21.27;4.30;;;;;;;;;;5038125;28;20061;-67
2022/07/27 05:58:44;;;;;;;17.33;4.90;;;;;;;;;;5037314;28;20503;-67
2022/07/27 06:01:10;;;;;;;16.90;4.68;;;;;;;;;;5041903;28;20073;-64
2022/07/27 06:03:37;;;;;;;23.45;4.45;;;;;;;;;;5040704;28;20076;-66
2022/07/27 06:08:47;;;;;;;18.60;4.53;;;;;;;;;;5035624;28;20041;-66
2022/07/27 06:11:13;;;;;;;20.17;5.00;;;;;;;;;;5037146;28;20043;-69
2022/07/27 06:13:39;;;;;;;20.95;4.78;;;;;;;;;;5042818;28;20057;-67
2022/07/27 06:16:05;;;;;;;12.65;4.15;;;;;;;;;;5041495;28;20040;-65
2022/07/27 06:18:31;;;;;;;24.45;4.47;;;;;;;;;;5048565;28;20053;-64
2022/07/27 06:20:58;;;;;;;16.80;4.15;;;;;;;;;;5044283;28;20126;-64
2022/07/27 06:23:24;;;;;;;20.05;4.90;;;;;;;;;;5043592;28;20132;-64
2022/07/27 06:25:50;;;;;;;20.17;4.95;;;;;;;;;;5043108;28;20045;-63
2022/07/27 06:28:18;;;;;;;18.08;4.28;;;;;;;;;;5041145;28;20197;-69
2022/07/27 06:30:45;;;;;;;20.15;4.88;;;;;;;;;;5042331;28;20055;-64
2022/07/27 06:33:11;;;;;;;18.63;4.50;;;;;;;;;;5038124;28;20049;-65
2022/07/27 06:35:37;;;;;;;19.20;4.63;;;;;;;;;;5045828;28;20052;-66
2022/07/27 06:38:03;;;;;;;18.70;5.57;;;;;;;;;;5039407;28;20049;-65
2022/07/27 06:40:29;;;;;;;21.00;4.85;;;;;;;;;;5043820;28;20048;-67
2022/07/27 06:42:54;;;;;;;15.45;4.45;;;;;;;;;;5047358;28;20044;-64
2022/07/27 06:45:20;;;;;;;16.40;4.57;;;;;;;;;;5041067;28;20149;-64
2022/07/27 06:47:47;;;;;;;15.27;4.25;;;;;;;;;;5040115;28;20033;-63
2022/07/27 06:50:13;;;;;;;13.40;4.22;;;;;;;;;;5043282;28;20050;-64
2022/07/27 06:52:39;;;;;;;19.05;4.38;;;;;;;;;;5040502;28;20073;-67
2022/07/27 06:55:05;;;;;;;19.02;4.63;;;;;;;;;;5034418;28;20053;-66
2022/07/27 06:57:31;;;;;;;16.48;4.60;;;;;;;;;;5046896;28;20062;-64
2022/07/27 06:59:57;;;;;;;15.10;4.22;;;;;;;;;;5043955;28;20072;-69
2022/07/27 07:02:23;;;;;;;12.20;3.90;;;;;;;;;;5041093;28;20420;-64
2022/07/27 07:04:49;;;;;;;15.95;4.30;;;;;;;;;;5042008;28;20045;-65
2022/07/27 07:07:15;;;;;;;17.27;4.32;;;;;;;;;;5043114;28;20466;-66
2022/07/27 07:09:41;;;;;;;19.17;4.70;;;;;;;;;;5043736;28;20468;-66
2022/07/27 07:12:06;;;;;;;14.85;4.53;;;;;;;;;;5046793;28;20041;-65
2022/07/27 07:14:33;;;;;;;17.05;4.28;;;;;;;;;;5036956;28;20077;-66
2022/07/27 07:17:00;;;;;;;18.27;4.10;;;;;;;;;;5046406;28;20061;-66
2022/07/27 07:19:27;;;;;;;14.23;3.90;;;;;;;;;;5043887;28;20041;-64
2022/07/27 07:21:53;;;;;;;13.65;4.15;;;;;;;;;;5034876;28;20056;-66
2022/07/27 07:24:19;;;;;;;19.38;4.82;;;;;;;;;;5040479;28;20041;-65
2022/07/27 07:26:44;;;;;;;16.65;4.07;;;;;;;;;;5041237;28;20048;-65
2022/07/27 07:29:10;;;;;;;17.00;4.50;;;;;;;;;;5030522;28;20148;-65
2022/07/27 07:31:36;;;;;;;16.95;4.35;;;;;;;;;;5036230;28;20120;-64
2022/07/27 07:34:03;;;;;;;13.10;4.88;;;;;;;;;;5044385;28;20049;-67
2022/07/27 07:36:29;;;;;;;18.35;4.30;;;;;;;;;;5042968;28;20486;-64
2022/07/27 07:38:54;;;;;;;17.90;5.53;;;;;;;;;;5041777;28;20056;-66
2022/07/27 07:41:23;;;;;;;19.48;7.80;;;;;;;;;;5044752;28;20045;-63
2022/07/27 07:43:49;;;;;;;21.95;5.55;;;;;;;;;;5032635;28;20041;-66
2022/07/27 07:46:15;;;;;;;15.48;4.32;;;;;;;;;;5040091;28;20136;-65
2022/07/27 07:48:42;;;;;;;19.42;4.65;;;;;;;;;;5032863;28;20037;-65
2022/07/27 07:51:09;;;;;;;17.40;4.47;;;;;;;;;;5046152;28;20175;-65
2022/07/27 07:53:34;;;;;;;24.85;4.38;;;;;;;;;;5036782;28;20557;-70
2022/07/27 07:56:01;;;;;;;15.40;4.07;;;;;;;;;;5036541;28;20041;-70
2022/07/27 07:58:27;;;;;;;15.63;4.22;;;;;;;;;;5031845;28;20059;-70
2022/07/27 08:00:53;;;;;;;22.67;4.40;;;;;;;;;;5034534;28;20040;-70
2022/07/27 08:03:20;;;;;;;17.77;4.30;;;;;;;;;;5038643;28;20060;-69
2022/07/27 08:05:46;;;;;;;14.38;4.10;;;;;;;;;;5034287;28;20041;-70
2022/07/27 08:08:12;;;;;;;16.60;4.45;;;;;;;;;;5037209;28;20045;-72
2022/07/27 08:10:37;;;;;;;16.33;3.83;;;;;;;;;;5047757;28;20202;-72
2022/07/27 08:13:03;;;;;;;17.10;4.15;;;;;;;;;;5043464;28;20057;-69
2022/07/27 08:15:29;;;;;;;18.67;4.25;;;;;;;;;;5046973;28;20409;-70
2022/07/27 08:17:55;;;;;;;14.50;3.97;;;;;;;;;;5044592;28;20047;-71
2022/07/27 08:20:23;;;;;;;18.50;4.07;;;;;;;;;;5045916;28;20055;-74
2022/07/27 08:22:49;;;;;;;18.50;4.88;;;;;;;;;;5041249;28;20075;-72
2022/07/27 08:25:15;;;;;;;12.75;3.95;;;;;;;;;;5044890;28;20042;-71
2022/07/27 08:27:41;;;;;;;14.27;4.07;;;;;;;;;;5033752;28;20117;-70
2022/07/27 08:30:09;;;;;;;22.50;4.95;;;;;;;;;;5037145;28;20046;-71
2022/07/27 08:32:57;;;;;;;11.73;3.47;;;;;;;;;;5040714;28;20133;-70
2022/07/27 08:35:23;;;;;;;14.20;3.67;;;;;;;;;;5043259;28;20493;-69
2022/07/27 08:37:50;;;;;;;11.50;3.70;;;;;;;;;;5038441;28;20045;-70
2022/07/27 08:40:16;;;;;;;18.35;3.90;;;;;;;;;;5038511;28;20751;-70
2022/07/27 08:42:42;;;;;;;16.50;3.72;;;;;;;;;;5042517;28;20052;-74
2022/07/27 08:45:14;;;;;;;19.33;4.40;;;;;;;;;;5039643;28;20455;-72
2022/07/27 08:47:41;;;;;;;13.90;3.72;;;;;;;;;;5036023;28;20045;-71
2022/07/27 08:50:26;;;;;;;20.92;4.03;;;;;;;;;;5031582;28;20045;-74
2022/07/27 08:53:12;;;;;;;16.30;3.67;;;;;;;;;;5039349;28;20218;-71
2022/07/27 08:55:40;;;;;;;14.07;4.28;;;;;;;;;;5045065;28;20096;-70
2022/07/27 08:58:08;;;;;;;16.88;3.80;;;;;;;;;;5034382;28;20084;-70
2022/07/27 09:00:37;;;;;;;17.08;3.85;;;;;;;;;;5042522;28;20498;-69
2022/07/27 09:03:03;;;;;;;23.25;4.90;;;;;;;;;;5049471;28;20127;-70
2022/07/27 09:05:29;;;;;;;18.30;4.10;;;;;;;;;;5037875;28;20450;-73
2022/07/27 09:08:11;;;;;;;13.05;3.75;;;;;;;;;;5047360;28;20079;-73
2022/07/27 09:10:38;;;;;;;17.75;3.95;;;;;;;;;;5041027;28;20098;-73
2022/07/27 09:13:26;;;;;;;12.77;3.60;;;;;;;;;;5045647;28;20077;-74
2022/07/27 09:15:54;;;;;;;14.48;3.60;;;;;;;;;;5052046;28;20425;-74
2022/07/27 09:18:23;;;;;;;16.77;4.18;;;;;;;;;;5043859;28;20050;-73
2022/07/27 09:21:09;;;;;;;18.90;4.63;;;;;;;;;;5043192;28;20501;-74
2022/07/27 09:23:36;;;;;;;13.80;3.80;;;;;;;;;;5050861;28;20048;-74
2022/07/27 09:26:19;;;;;;;19.33;4.05;;;;;;;;;;5041447;28;20552;-75
2022/07/27 09:28:45;;;;;;;18.13;4.18;;;;;;;;;;5042526;28;20048;-73
2022/07/27 09:31:13;;;;;;;16.35;3.55;;;;;;;;;;5038336;28;20045;-72
2022/07/27 09:33:48;;;;;;;13.07;3.42;;;;;;;;;;5042145;28;20164;-70
2022/07/27 09:36:16;;;;;;;13.77;3.90;;;;;;;;;;5047523;28;20457;-73
2022/07/27 09:39:05;;;;;;;14.27;3.67;;;;;;;;;;5047176;28;20044;-76
2022/07/27 09:41:38;;;;;;;15.90;3.95;;;;;;;;;;5031826;28;20092;-72
2022/07/27 09:44:04;;;;;;;13.32;3.67;;;;;;;;;;5042437;28;20068;-71
2022/07/27 09:46:32;;;;;;;16.95;3.90;;;;;;;;;;5037966;28;20511;-71
2022/07/27 09:48:58;;;;;;;11.02;3.67;;;;;;;;;;5041032;28;20132;-70
2022/07/27 09:51:24;;;;;;;19.50;3.90;;;;;;;;;;5040586;28;20086;-70
2022/07/27 09:53:52;;;;;;;14.88;4.00;;;;;;;;;;5038116;28;20045;-70
2022/07/27 09:56:25;;;;;;;15.05;4.30;;;;;;;;;;5030824;28;20057;-70
2022/07/27 09:58:55;;;;;;;14.05;3.38;;;;;;;;;;5039500;28;20049;-71
2022/07/27 10:01:33;;;;;;;18.80;4.13;;;;;;;;;;5031581;28;20116;-69
2022/07/27 10:04:03;;;;;;;12.27;3.80;;;;;;;;;;5063746;28;20053;-70
2022/07/27 10:06:29;;;;;;;14.05;3.95;;;;;;;;;;5047657;28;20037;-71
2022/07/27 10:08:57;;;;;;;12.43;3.60;;;;;;;;;;5037197;28;20068;-70
2022/07/27 10:11:24;;;;;;;11.13;3.75;;;;;;;;;;5035961;28;20038;-68
2022/07/27 10:13:52;;;;;;;14.75;3.92;;;;;;;;;;5039297;28;20071;-70
2022/07/27 10:16:30;;;;;;;11.48;3.63;;;;;;;;;;5037247;28;20513;-69
2022/07/27 10:19:05;;;;;;;13.70;3.88;;;;;;;;;;5034265;28;20057;-71
2022/07/27 10:21:33;;;;;;;20.17;4.70;;;;;;;;;;5037806;28;20997;-70
2022/07/27 10:24:04;;;;;;;29.70;7.10;;;;;;;;;;5033226;28;20077;-70
2022/07/27 10:26:35;;;;;;;22.75;6.10;;;;;;;;;;5035906;28;20056;-70
2022/07/27 10:29:05;;;;;;;16.17;5.13;;;;;;;;;;5033206;28;20061;-72
2022/07/27 10:31:36;;;;;;;20.88;4.70;;;;;;;;;;5044025;28;20038;-72
2022/07/27 10:34:05;;;;;;;14.32;4.13;;;;;;;;;;5034865;28;20115;-70
2022/07/27 10:36:31;;;;;;;13.15;4.15;;;;;;;;;;5039882;28;20518;-73
2022/07/27 10:38:59;;;;;;;21.05;3.97;;;;;;;;;;5046252;28;20152;-70
2022/07/27 10:41:33;;;;;;;11.68;3.60;;;;;;;;;;5039231;28;20076;-69
2022/07/27 10:44:13;;;;;;;;;;;;;;;;;;5036224;28;20096;-73
2022/07/27 10:46:43;;;;;;;14.70;3.60;;;;;;;;;;5042655;28;19943;-72
2022/07/27 10:49:21;;;;;;;11.27;3.72;;;;;;;;;;5040476;28;20099;-73
2022/07/27 10:51:48;;;;;;;13.90;3.72;;;;;;;;;;5030721;28;20477;-72
2022/07/27 10:54:31;;;;;;;10.88;3.47;;;;;;;;;;5030941;28;20053;-74
2022/07/27 10:56:58;;;;;;;19.55;4.05;;;;;;;;;;5042239;28;20089;-72
2022/07/27 10:59:45;;;;;;;13.40;3.40;;;;;;;;;;5032623;28;20053;-72
2022/07/27 11:02:13;;;;;;;11.85;3.22;;;;;;;;;;5026084;28;20067;-73
2022/07/27 11:04:43;;;;;;;11.88;2.95;;;;;;;;;;5028601;28;20046;-72
2022/07/27 11:07:09;;;;;;;11.43;3.13;;;;;;;;;;5029042;28;20144;-71
2022/07/27 11:09:40;;;;;;;16.60;3.90;;;;;;;;;;5038402;28;20050;-71
2022/07/27 11:12:09;;;;;;;14.50;3.90;;;;;;;;;;5046887;28;20067;-71
2022/07/27 11:15:01;;;;;;;14.50;3.80;;;;;;;;;;5031549;28;20045;-72
2022/07/27 11:17:29;;;;;;;10.93;3.40;;;;;;;;;;5038897;28;20053;-69
2022/07/27 11:19:57;;;;;;;11.07;3.33;;;;;;;;;;5039752;28;20079;-70
2022/07/27 11:22:34;;;;;;;11.60;3.30;;;;;;;;;;5031515;28;20174;-70
2022/07/27 11:25:00;;;;;;;12.05;3.60;;;;;;;;;;5028795;28;20049;-68
2022/07/27 11:27:27;;;;;;;13.75;3.95;;;;;;;;;;5030802;28;20056;-69
2022/07/27 11:29:53;;;;;;;12.63;3.55;;;;;;;;;;5029491;28;20041;-71
2022/07/27 11:32:20;;;;;;;11.07;3.40;;;;;;;;;;5028454;28;20128;-70
2022/07/27 11:34:47;;;;;;;11.40;3.28;;;;;;;;;;5032259;28;20045;-70
2022/07/27 11:37:18;;;;;;;17.48;3.50;;;;;;;;;;5030839;28;20137;-71
2022/07/27 11:39:56;;;;;;;13.07;3.67;;;;;;;;;;5033861;28;20072;-72
2022/07/27 11:42:22;;;;;;;11.57;3.58;;;;;;;;;;5040126;28;20132;-72
2022/07/27 11:44:49;;;;;;;17.65;3.83;;;;;;;;;;5051073;28;20502;-73
2022/07/27 11:47:16;;;;;;;13.77;3.05;;;;;;;;;;5034401;28;20114;-72
2022/07/27 11:49:42;;;;;;;11.15;3.42;;;;;;;;;;5032124;28;20487;-72
2022/07/27 11:52:10;;;;;;;17.30;3.53;;;;;;;;;;5039821;28;20054;-73
2022/07/27 11:54:38;;;;;;;13.43;3.05;;;;;;;;;;5033087;28;20100;-74
2022/07/27 11:57:11;;;;;;;15.13;3.40;;;;;;;;;;5034011;28;20502;-72
2022/07/27 11:59:42;;;;;;;15.57;3.60;;;;;;;;;;5031146;28;20056;-71
2022/07/27 12:02:13;;;;;;;12.80;3.33;;;;;;;;;;5041683;28;20050;-73
2022/07/27 12:04:41;;;;;;;13.63;3.50;;;;;;;;;;5029403;28;20084;-73
2022/07/27 12:07:09;;;;;;;16.67;3.80;;;;;;;;;;5030483;28;20048;-72
2022/07/27 12:09:57;;;;;;;15.98;3.70;;;;;;;;;;5029800;28;20530;-71
2022/07/27 12:12:28;;;;;;;16.23;3.40;;;;;;;;;;5046268;28;20072;-71
2022/07/27 12:15:01;;;;;;;13.05;3.25;;;;;;;;;;5031335;28;20049;-71
2022/07/27 12:17:29;;;;;;;17.85;3.45;;;;;;;;;;5048461;28;20525;-71
2022/07/27 12:19:59;;;;;;;13.13;3.35;;;;;;;;;;5030318;28;20057;-74
2022/07/27 12:22:33;;;;;;;15.32;3.75;;;;;;;;;;5040061;28;20080;-71
2022/07/27 12:25:09;;;;;;;16.33;3.70;;;;;;;;;;5059258;28;20068;-71
2022/07/27 12:27:37;;;;;;;13.90;3.33;;;;;;;;;;5033667;28;20499;-72
2022/07/27 12:30:08;;;;;;;13.00;3.58;;;;;;;;;;5034205;28;20049;-73
2022/07/27 12:32:41;;;;;;;12.10;3.50;;;;;;;;;;5048308;28;20491;-73
2022/07/27 12:35:28;;;;;;;13.63;3.85;;;;;;;;;;5029428;28;20092;-72
2022/07/27 12:38:00;;;;;;;12.93;3.22;;;;;;;;;;5029079;28;20119;-72
2022/07/27 12:40:27;;;;;;;11.82;3.75;;;;;;;;;;5027941;28;20398;-72
2022/07/27 12:43:04;;;;;;;13.52;3.42;;;;;;;;;;5029821;28;20045;-73
2022/07/27 12:45:36;;;;;;;12.45;3.60;;;;;;;;;;5042168;28;20495;-72
2022/07/27 12:48:07;;;;;;;12.05;3.05;;;;;;;;;;5045748;28;20045;-74
2022/07/27 12:50:33;;;;;;;14.63;3.15;;;;;;;;;;5032951;28;20340;-73
2022/07/27 12:52:59;;;;;;;13.27;3.67;;;;;;;;;;5048516;28;20485;-73
2022/07/27 12:55:25;;;;;;;10.65;3.08;;;;;;;;;;5032692;28;20281;-74
2022/07/27 12:57:54;;;;;;;18.67;3.70;;;;;;;;;;5032470;28;20076;-73
2022/07/27 13:00:23;;;;;;;17.77;3.78;;;;;;;;;;5032364;28;20045;-72
2022/07/27 13:02:49;;;;;;;9.40;3.10;;;;;;;;;;5040998;28;20058;-75
2022/07/27 13:05:16;;;;;;;9.20;2.72;;;;;;;;;;5070239;28;20041;-73
2022/07/27 13:07:44;;;;;;;16.35;3.25;;;;;;;;;;5033770;28;20101;-73
2022/07/27 13:10:12;;;;;;;11.48;2.90;;;;;;;;;;5039485;28;20060;-73
2022/07/27 13:12:38;;;;;;;12.43;3.17;;;;;;;;;;5041158;28;20051;-72
2022/07/27 13:15:06;;;;;;;13.88;3.13;;;;;;;;;;5044130;28;20479;-73
2022/07/27 13:17:32;;;;;;;12.80;3.17;;;;;;;;;;5032995;28;20049;-72
2022/07/27 13:19:58;;;;;;;9.88;3.50;;;;;;;;;;5046822;28;20053;-74
2022/07/27 13:22:24;;;;;;;9.70;3.47;;;;;;;;;;5033113;28;20399;-74
2022/07/27 13:24:50;;;;;;;13.02;3.17;;;;;;;;;;5045430;28;20387;-73
2022/07/27 13:27:16;;;;;;;12.57;3.22;;;;;;;;;;5041999;28;20044;-72
2022/07/27 13:29:42;;;;;;;16.50;3.63;;;;;;;;;;5037190;28;20067;-72
2022/07/27 13:32:08;;;;;;;13.40;3.10;;;;;;;;;;5038486;28;20414;-72
2022/07/27 13:34:34;;;;;;;17.77;3.63;;;;;;;;;;5035501;28;20411;-73
2022/07/27 13:36:59;;;;;;;10.93;3.10;;;;;;;;;;5034878;28;20041;-74
2022/07/27 13:39:25;;;;;;;10.18;3.08;;;;;;;;;;5038157;28;20041;-71
2022/07/27 13:41:51;;;;;;;14.48;3.10;;;;;;;;;;5031436;28;20049;-73
2022/07/27 13:44:22;;;;;;;9.98;3.40;;;;;;;;;;5030371;28;20045;-72
2022/07/27 13:46:48;;;;;;;14.40;3.35;;;;;;;;;;5030593;28;20057;-72
2022/07/27 13:49:16;;;;;;;13.02;3.33;;;;;;;;;;5039513;28;20132;-76
2022/07/27 13:51:42;;;;;;;8.48;3.05;;;;;;;;;;5031167;28;20199;-74
2022/07/27 13:54:09;;;;;;;11.50;3.03;;;;;;;;;;5036070;28;20053;-73
2022/07/27 13:56:35;;;;;;;13.48;3.08;;;;;;;;;;5039328;28;20053;-74
2022/07/27 13:59:03;;;;;;;18.40;3.88;;;;;;;;;;5044618;28;20158;-74
2022/07/27 14:01:31;;;;;;;10.65;3.25;;;;;;;;;;5035897;28;20103;-74
2022/07/27 14:03:57;;;;;;;14.05;3.05;;;;;;;;;;5031678;28;20518;-73
2022/07/27 14:06:24;;;;;;;9.25;3.53;;;;;;;;;;5042153;28;20124;-73
2022/07/27 14:08:50;;;;;;;10.68;3.10;;;;;;;;;;5049161;28;20051;-76
2022/07/27 14:11:16;;;;;;;10.77;2.90;;;;;;;;;;5047141;28;20120;-71
2022/07/27 14:13:42;;;;;;;15.68;3.33;;;;;;;;;;5045912;28;20132;-73
2022/07/27 14:16:08;;;;;;;12.60;3.45;;;;;;;;;;5035509;28;20061;-74
2022/07/27 14:18:35;;;;;;;8.63;2.97;;;;;;;;;;5029134;28;20059;-73
2022/07/27 14:21:05;;;;;;;9.48;2.72;;;;;;;;;;5042623;28;20053;-73
2022/07/27 14:23:33;;;;;;;11.55;2.97;;;;;;;;;;5030440;28;20041;-72
2022/07/27 14:26:01;;;;;;;11.05;3.30;;;;;;;;;;5034814;28;20073;-73
2022/07/27 14:28:28;;;;;;;12.27;3.05;;;;;;;;;;5031358;28;20042;-74
2022/07/27 14:30:54;;;;;;;11.05;3.00;;;;;;;;;;5041038;28;20064;-74
2022/07/27 14:33:21;;;;;;;13.27;3.67;;;;;;;;;;5030774;28;20053;-74
2022/07/27 14:35:47;;;;;;;12.13;3.15;;;;;;;;;;5029475;28;20117;-77
2022/07/27 14:38:14;;;;;;;14.85;3.33;;;;;;;;;;5043581;28;20052;-72
2022/07/27 14:40:40;;;;;;;12.30;3.22;;;;;;;;;;5029085;28;20041;-73
2022/07/27 14:43:07;;;;;;;14.15;3.17;;;;;;;;;;5029924;28;20620;-74
2022/07/27 14:45:33;;;;;;;13.82;3.55;;;;;;;;;;5039003;28;20101;-73
2022/07/27 14:48:00;;;;;;;10.55;3.20;;;;;;;;;;5036593;28;20056;-72
2022/07/27 14:50:26;;;;;;;11.52;3.33;;;;;;;;;;5031764;28;20134;-74
2022/07/27 14:52:51;;;;;;;15.63;3.28;;;;;;;;;;5034802;28;20122;-75
2022/07/27 14:55:18;;;;;;;14.73;3.45;;;;;;;;;;5036753;28;20103;-73
2022/07/27 14:57:45;;;;;;;17.95;3.50;;;;;;;;;;5032512;28;20072;-75
2022/07/27 15:00:14;;;;;;;8.93;3.03;;;;;;;;;;5029075;28;20048;-73
2022/07/27 15:02:42;;;;;;;14.32;3.38;;;;;;;;;;5034940;28;20048;-73
2022/07/27 15:05:09;;;;;;;13.75;3.22;;;;;;;;;;5028868;28;20057;-75
2022/07/27 15:07:35;;;;;;;11.48;3.22;;;;;;;;;;5033453;28;20033;-73
2022/07/27 15:10:03;;;;;;;10.95;3.13;;;;;;;;;;5036084;28;20122;-71
2022/07/27 15:12:29;;;;;;;12.52;3.20;;;;;;;;;;5038418;28;20498;-66
2022/07/27 15:14:55;;;;;;;11.50;3.25;;;;;;;;;;5024998;28;20053;-70
2022/07/27 15:17:23;;;;;;;9.77;3.17;;;;;;;;;;5036267;28;20102;-66
2022/07/27 15:19:49;;;;;;;16.88;3.55;;;;;;;;;;5038458;28;20044;-67
2022/07/27 15:22:15;;;;;;;14.32;2.92;;;;;;;;;;5033389;28;20422;-67
2022/07/27 15:24:41;;;;;;;10.15;3.00;;;;;;;;;;5033829;28;20040;-69
2022/07/27 15:27:06;;;;;;;11.05;3.25;;;;;;;;;;5036109;28;20048;-67
2022/07/27 15:29:32;;;;;;;10.88;3.40;;;;;;;;;;5038053;28;20052;-69
2022/07/27 15:31:58;;;;;;;9.55;3.08;;;;;;;;;;5035474;28;20045;-67
2022/07/27 15:34:24;;;;;;;13.23;3.58;;;;;;;;;;5039047;28;20053;-67
2022/07/27 15:36:49;;;;;;;12.75;3.35;;;;;;;;;;5036624;28;20136;-68
2022/07/27 15:39:19;;;;;;;12.50;3.30;;;;;;;;;;5036296;28;20053;-69
2022/07/27 15:41:46;;;;;;;14.88;3.75;;;;;;;;;;5040004;28;20092;-67